Time;durP1;ratioP1;P1;durP2;ratioP2;P2;SDS_P1;SDS_P2;PMS_P1;PMS_P2;Temp;Humidity;BMP_temperature;BMP_pressure;BME280_temperature;BME280_humidity;BME280_pressure;Samples;Min_cycle;Max_cycle;Signal;HPM_P1;HPM_P2
2022/03/14 00:01:16;;;;;;;;;;;22.10;42.80;;;;;;6327162;27;20040;-55
2022/03/14 00:04:18;;;;;;;;;;;21.80;43.10;;;;;;6329720;27;19938;-51
2022/03/14 00:07:20;;;;;;;;;;;21.60;43.10;;;;;;6330491;27;20852;-55
2022/03/14 00:10:21;;;;;;;;;;;21.60;43.10;;;;;;6328483;27;20108;-52
2022/03/14 00:13:23;;;;;;;;;;;21.50;43.10;;;;;;6327952;27;19931;-53
2022/03/14 00:16:30;;;;;;;;;;;22.00;43.40;;;;;;6329215;27;20046;-50
2022/03/14 00:19:32;;;;;;;;;;;22.10;43.40;;;;;;6330572;27;19923;-51
2022/03/14 00:22:36;;;;;;;;;;;21.70;43.30;;;;;;6330547;27;19931;-59
2022/03/14 00:25:37;;;;;;;;;;;21.40;43.10;;;;;;6330141;27;20032;-52
2022/03/14 00:28:39;;;;;;;;;;;21.50;43.00;;;;;;6314908;27;20050;-50
2022/03/14 00:31:41;;;;;;;;;;;21.50;43.10;;;;;;6329994;27;20037;-52
2022/03/14 00:34:42;;;;;;;;;;;21.90;43.40;;;;;;6327477;27;19986;-50
2022/03/14 00:37:44;;;;;;;;;;;21.50;43.20;;;;;;6332587;27;20822;-52
2022/03/14 00:40:46;;;;;;;;;;;21.70;43.30;;;;;;6315692;27;19924;-54
2022/03/14 00:43:48;;;;;;;;;;;21.50;43.30;;;;;;6331133;27;20049;-51
2022/03/14 00:46:50;;;;;;;;;;;21.70;43.30;;;;;;6333389;27;20003;-54
2022/03/14 00:49:51;;;;;;;;;;;22.10;43.40;;;;;;6329209;27;19995;-53
2022/03/14 00:52:53;;;;;;;;;;;21.50;43.30;;;;;;6331971;27;19938;-54
2022/03/14 00:55:54;;;;;;;;;;;21.30;43.20;;;;;;6314803;27;19931;-56
2022/03/14 00:58:59;;;;;;;;;;;21.60;43.40;;;;;;6330607;27;19977;-53
2022/03/14 01:02:01;;;;;;;;;;;21.40;43.10;;;;;;6328600;27;19934;-50
2022/03/14 01:05:04;;;;;;;;;;;21.50;43.30;;;;;;6311703;27;20888;-54
2022/03/14 01:08:06;;;;;;;;;;;21.70;43.30;;;;;;6338233;27;19970;-56
2022/03/14 01:11:07;;;;;;;;;;;21.50;43.20;;;;;;6335027;27;20113;-52
2022/03/14 01:14:10;;;;;;;;;;;21.50;43.30;;;;;;6314461;27;19980;-53
2022/03/14 01:17:11;;;;;;;;;;;22.30;43.70;;;;;;6320902;27;19931;-54
2022/03/14 01:20:12;;;;;;;;;;;21.80;43.10;;;;;;6335548;27;19927;-50
2022/03/14 01:23:14;;;;;;;;;;;21.80;43.30;;;;;;6334830;27;19923;-53
2022/03/14 01:26:17;;;;;;;;;;;21.40;43.20;;;;;;6333636;27;20087;-53
2022/03/14 01:29:22;;;;;;;;;;;21.60;43.10;;;;;;6334340;27;20794;-54
2022/03/14 01:32:24;;;;;;;;;;;21.50;43.20;;;;;;6332087;27;20708;-54
2022/03/14 01:35:26;;;;;;;;;;;21.70;43.30;;;;;;6331194;27;19923;-54
2022/03/14 01:38:27;;;;;;;;;;;21.50;43.30;;;;;;6333683;27;19970;-54
2022/03/14 01:41:29;;;;;;;;;;;21.50;43.20;;;;;;6332309;27;19993;-51
2022/03/14 01:44:32;;;;;;;;;;;21.30;43.30;;;;;;6327459;27;19932;-51
2022/03/14 01:47:34;;;;;;;;;;;21.40;43.30;;;;;;6335054;27;19923;-52
2022/03/14 01:50:35;;;;;;;;;;;22.00;43.60;;;;;;6319534;27;19963;-55
2022/03/14 01:53:37;;;;;;;;;;;21.40;43.30;;;;;;6338878;27;20067;-50
2022/03/14 01:56:39;;;;;;;;;;;21.90;43.60;;;;;;6329468;27;19927;-51
2022/03/14 01:59:41;;;;;;;;;;;21.60;43.40;;;;;;6332889;27;20131;-51
2022/03/14 02:02:47;;;;;;;;;;;21.30;43.20;;;;;;6336586;27;19930;-53
2022/03/14 02:05:49;;;;;;;;;;;21.70;43.40;;;;;;6325129;27;19931;-53
2022/03/14 02:08:50;;;;;;;;;;;21.40;43.40;;;;;;6326155;27;19978;-53
2022/03/14 02:11:53;;;;;;;;;;;21.30;43.40;;;;;;6330155;27;19965;-56
2022/03/14 02:14:54;;;;;;;;;;;21.40;43.10;;;;;;6326909;27;20000;-51
2022/03/14 02:17:56;;;;;;;;;;;21.50;43.40;;;;;;6335805;27;21079;-48
2022/03/14 02:20:58;;;;;;;;;;;21.80;43.70;;;;;;6321010;27;20260;-51
2022/03/14 02:24:01;;;;;;;;;;;21.30;43.30;;;;;;6323984;27;20051;-51
2022/03/14 02:27:04;;;;;;;;;;;21.60;43.40;;;;;;6326233;27;19927;-51
2022/03/14 02:30:06;;;;;;;;;;;21.60;43.50;;;;;;6324964;27;20194;-51
2022/03/14 02:33:08;;;;;;;;;;;21.30;43.30;;;;;;6323626;27;20043;-50
2022/03/14 02:36:10;;;;;;;;;;;21.60;43.60;;;;;;6325300;27;19939;-51
2022/03/14 02:39:11;;;;;;;;;;;21.70;43.60;;;;;;6326462;27;20031;-52
2022/03/14 02:42:12;;;;;;;;;;;21.10;43.40;;;;;;6322804;27;20628;-49
2022/03/14 02:45:14;;;;;;;;;;;20.90;43.30;;;;;;6321888;27;20355;-54
2022/03/14 02:48:16;;;;;;;;;;;21.40;43.40;;;;;;6315409;27;19931;-51
2022/03/14 02:51:19;;;;;;;;;;;21.50;43.60;;;;;;6318911;27;20452;-50
2022/03/14 02:54:20;;;;;;;;;;;21.50;43.50;;;;;;6324044;27;20283;-51
2022/03/14 02:57:22;;;;;;;;;;;21.50;43.60;;;;;;6322769;27;19931;-52
2022/03/14 03:00:23;;;;;;;;;;;21.80;43.90;;;;;;6323524;27;20719;-55
2022/03/14 03:03:27;;;;;;;;;;;21.80;43.20;;;;;;6322325;27;20599;-51
2022/03/14 03:06:32;;;;;;;;;;;21.50;43.60;;;;;;6320035;27;20374;-53
2022/03/14 03:09:34;;;;;;;;;;;21.40;43.40;;;;;;6325715;27;20033;-53
2022/03/14 03:12:37;;;;;;;;;;;21.40;43.50;;;;;;6324854;27;20482;-53
2022/03/14 03:15:38;;;;;;;;;;;21.20;43.40;;;;;;6306283;27;20603;-50
2022/03/14 03:18:40;;;;;;;;;;;21.60;43.60;;;;;;6321124;27;19962;-49
2022/03/14 03:21:42;;;;;;;;;;;21.80;43.70;;;;;;6323305;27;19970;-53
2022/03/14 03:24:43;;;;;;;;;;;21.50;43.50;;;;;;6322521;27;19934;-51
2022/03/14 03:27:45;;;;;;;;;;;21.70;43.80;;;;;;6320270;27;20624;-52
2022/03/14 03:30:47;;;;;;;;;;;21.20;43.50;;;;;;6322587;27;20091;-52
2022/03/14 03:33:50;;;;;;;;;;;21.30;43.40;;;;;;6312811;27;19970;-49
2022/03/14 03:36:52;;;;;;;;;;;21.30;43.40;;;;;;6311211;27;20046;-54
2022/03/14 03:39:53;;;;;;;;;;;21.30;43.40;;;;;;6331461;27;19927;-51
2022/03/14 03:42:54;;;;;;;;;;;21.30;43.50;;;;;;6326682;27;20851;-50
2022/03/14 03:45:56;;;;;;;;;;;21.60;43.80;;;;;;6319096;27;20497;-53
2022/03/14 03:48:58;;;;;;;;;;;21.50;43.50;;;;;;6308727;27;20341;-49
2022/03/14 03:52:00;;;;;;;;;;;21.90;43.90;;;;;;6317232;27;20020;-50
2022/03/14 03:55:01;;;;;;;;;;;21.30;43.50;;;;;;6323309;27;19970;-51
2022/03/14 03:58:02;;;;;;;;;;;21.30;43.60;;;;;;6323466;27;20241;-49
2022/03/14 04:01:04;;;;;;;;;;;21.60;43.50;;;;;;6325492;27;19969;-52
2022/03/14 04:04:06;;;;;;;;;;;21.30;43.60;;;;;;6329793;27;19999;-50
2022/03/14 04:07:08;;;;;;;;;;;21.10;43.60;;;;;;6328716;27;20537;-50
2022/03/14 04:10:11;;;;;;;;;;;21.50;43.60;;;;;;6326079;27;20136;-51
2022/03/14 04:13:13;;;;;;;;;;;21.40;43.70;;;;;;6325885;27;20584;-51
2022/03/14 04:16:18;;;;;;;;;;;21.70;43.90;;;;;;6326915;27;20341;-50
2022/03/14 04:19:21;;;;;;;;;;;21.40;43.50;;;;;;6337801;27;19974;-53
2022/03/14 04:22:23;;;;;;;;;;;22.00;44.10;;;;;;6337081;27;19931;-50
2022/03/14 04:25:25;;;;;;;;;;;21.60;43.90;;;;;;6336744;27;20021;-55
2022/03/14 04:28:30;;;;;;;;;;;21.20;43.70;;;;;;6337061;27;19987;-56
2022/03/14 04:31:32;;;;;;;;;;;21.50;43.90;;;;;;6336595;27;20053;-52
2022/03/14 04:34:33;;;;;;;;;;;21.30;43.50;;;;;;6340272;27;19932;-55
2022/03/14 04:37:36;;;;;;;;;;;21.30;43.70;;;;;;6339980;27;20859;-53
2022/03/14 04:40:38;;;;;;;;;;;21.70;43.80;;;;;;6344394;27;20720;-49
2022/03/14 04:43:39;;;;;;;;;;;21.80;44.00;;;;;;6337706;27;19930;-51
2022/03/14 04:46:40;;;;;;;;;;;21.10;43.60;;;;;;6338530;27;20861;-50
2022/03/14 04:49:43;;;;;;;;;;;21.30;43.70;;;;;;6324396;27;20725;-51
2022/03/14 04:52:44;;;;;;;;;;;22.00;44.00;;;;;;6339732;27;20038;-54
2022/03/14 04:55:46;;;;;;;;;;;21.50;43.80;;;;;;6341003;27;20751;-49
2022/03/14 04:58:47;;;;;;;;;;;21.00;43.50;;;;;;6335085;27;19955;-50
2022/03/14 05:01:48;;;;;;;;;;;21.80;43.80;;;;;;6335321;27;19986;-54
2022/03/14 05:04:50;;;;;;;;;;;21.20;43.70;;;;;;6338644;27;20696;-52
2022/03/14 05:07:52;;;;;;;;;;;21.40;43.80;;;;;;6321723;27;20879;-52
2022/03/14 05:10:54;;;;;;;;;;;21.10;43.50;;;;;;6337676;27;19927;-50
2022/03/14 05:13:55;;;;;;;;;;;21.20;43.70;;;;;;6317495;27;19978;-55
2022/03/14 05:16:56;;;;;;;;;;;21.20;43.80;;;;;;6333421;27;19938;-52
2022/03/14 05:19:58;;;;;;;;;;;21.40;43.80;;;;;;6332581;27;20892;-53
2022/03/14 05:23:00;;;;;;;;;;;21.60;43.80;;;;;;6332575;27;20000;-55
2022/03/14 05:26:01;;;;;;;;;;;21.30;43.70;;;;;;6338593;27;20791;-55
2022/03/14 05:29:03;;;;;;;;;;;21.30;43.80;;;;;;6336299;27;20026;-50
2022/03/14 05:32:04;;;;;;;;;;;21.40;43.90;;;;;;6337580;27;20049;-52
2022/03/14 05:35:07;;;;;;;;;;;21.10;43.80;;;;;;6333401;27;20025;-48
2022/03/14 05:38:08;;;;;;;;;;;21.20;43.60;;;;;;6337393;27;20073;-51
2022/03/14 05:41:10;;;;;;;;;;;21.10;43.70;;;;;;6333376;27;19970;-53
2022/03/14 05:44:11;;;;;;;;;;;21.40;44.00;;;;;;6329938;27;20153;-50
2022/03/14 05:47:13;;;;;;;;;;;21.30;43.90;;;;;;6334053;27;19982;-53
2022/03/14 05:50:15;;;;;;;;;;;21.80;44.20;;;;;;6314243;27;19935;-55
2022/03/14 05:53:17;;;;;;;;;;;21.60;44.00;;;;;;6311409;27;19927;-51
2022/03/14 05:56:18;;;;;;;;;;;21.80;44.10;;;;;;6333627;27;20792;-54
2022/03/14 05:59:19;;;;;;;;;;;21.10;43.80;;;;;;6329330;27;20029;-54
2022/03/14 06:02:21;;;;;;;;;;;21.60;44.10;;;;;;6323892;27;19931;-50
2022/03/14 06:05:23;;;;;;;;;;;21.40;43.30;;;;;;6322375;27;19931;-49
2022/03/14 06:08:25;;;;;;;;;;;21.60;44.00;;;;;;6330536;27;19934;-54
2022/03/14 06:11:27;;;;;;;;;;;21.10;43.80;;;;;;6326430;27;19931;-52
2022/03/14 06:14:28;;;;;;;;;;;21.40;44.00;;;;;;6315075;27;20093;-49
2022/03/14 06:17:30;;;;;;;;;;;21.50;43.70;;;;;;6319399;27;21380;-50
2022/03/14 06:20:32;;;;;;;;;;;21.20;43.80;;;;;;6320496;27;19966;-51
2022/03/14 06:23:36;;;;;;;;;;;21.60;43.70;;;;;;6320337;27;20883;-52
2022/03/14 06:26:38;;;;;;;;;;;21.40;44.00;;;;;;6320386;27;21001;-52
2022/03/14 06:29:41;;;;;;;;;;;21.50;42.30;;;;;;6302993;27;19967;-54
2022/03/14 06:32:43;;;;;;;;;;;21.30;44.00;;;;;;6323550;27;19928;-53
2022/03/14 06:35:45;;;;;;;;;;;21.00;43.80;;;;;;6301098;27;20875;-52
2022/03/14 06:38:47;;;;;;;;;;;21.30;44.10;;;;;;6323429;27;19992;-53
2022/03/14 06:41:48;;;;;;;;;;;21.10;43.80;;;;;;6318562;27;20916;-55
2022/03/14 06:44:50;;;;;;;;;;;21.60;44.00;;;;;;6322232;27;19931;-50
2022/03/14 06:47:52;;;;;;;;;;;20.90;43.80;;;;;;6302668;27;19931;-55
2022/03/14 06:50:54;;;;;;;;;;;21.50;43.90;;;;;;6296088;27;19931;-54
2022/03/14 06:53:55;;;;;;;;;;;21.80;44.30;;;;;;6313618;27;19988;-52
2022/03/14 06:56:58;;;;;;;;;;;21.00;43.50;;;;;;6317214;27;20058;-52
2022/03/14 06:59:59;;;;;;;;;;;21.30;43.60;;;;;;6316405;27;20035;-54
2022/03/14 07:03:00;;;;;;;;;;;21.40;43.90;;;;;;6309671;27;20045;-52
2022/03/14 07:06:02;;;;;;;;;;;21.20;43.70;;;;;;6309254;27;19931;-53
2022/03/14 07:09:04;;;;;;;;;;;21.60;43.80;;;;;;6305155;27;20042;-52
2022/03/14 07:12:09;;;;;;;;;;;21.50;43.60;;;;;;6277657;27;19939;-52
2022/03/14 07:15:13;;;;;;;;;;;21.30;43.50;;;;;;6275577;27;21217;-53
2022/03/14 07:18:17;;;;;;;;;;;21.30;43.40;;;;;;6285597;27;19938;-56
2022/03/14 07:21:18;;;;;;;;;;;21.70;43.70;;;;;;6284262;27;19937;-52
2022/03/14 07:24:20;;;;;;;;;;;22.10;43.80;;;;;;6279117;27;19931;-52
2022/03/14 07:27:22;;;;;;;;;;;21.90;43.50;;;;;;6277201;27;19935;-48
2022/03/14 07:30:23;;;;;;;;;;;21.60;43.40;;;;;;6276352;27;20115;-51
2022/03/14 07:33:25;;;;;;;;;;;21.70;43.40;;;;;;6267125;27;19931;-52
2022/03/14 07:36:27;;;;;;;;;;;21.40;43.20;;;;;;6247926;27;19931;-52
2022/03/14 07:39:29;;;;;;;;;;;21.50;43.40;;;;;;6263568;27;20852;-51
2022/03/14 07:42:31;;;;;;;;;;;21.90;43.20;;;;;;6234730;27;20838;-50
2022/03/14 07:45:32;;;;;;;;;;;22.30;43.30;;;;;;6233315;27;19935;-50
2022/03/14 07:48:40;;;;;;;;;;;21.50;43.10;;;;;;6218548;27;35128;-51
2022/03/14 07:51:42;;;;;;;;;;;21.90;43.20;;;;;;6226760;27;25738;-54
2022/03/14 07:54:44;;;;;;;;;;;22.10;43.20;;;;;;6197175;27;26430;-50
2022/03/14 07:57:46;;;;;;;;;;;21.80;43.10;;;;;;6179390;27;19937;-53
2022/03/14 08:00:48;;;;;;;;;;;21.70;43.00;;;;;;6199076;27;19940;-52
2022/03/14 08:03:49;;;;;;;;;;;22.10;41.80;;;;;;6115743;27;28972;-52
2022/03/14 08:06:51;;;;;;;;;;;22.10;43.20;;;;;;6141512;27;20057;-49
2022/03/14 08:09:53;;;;;;;;;;;22.00;43.10;;;;;;6163350;27;19935;-50
2022/03/14 08:12:56;;;;;;;;;;;21.60;42.70;;;;;;6153788;27;19932;-49
2022/03/14 08:15:58;;;;;;;;;;;22.10;43.00;;;;;;6135204;27;21815;-51
2022/03/14 08:18:59;;;;;;;;;;;22.30;42.90;;;;;;6140135;27;19972;-50
2022/03/14 08:22:02;;;;;;;;;;;21.90;42.70;;;;;;6144838;27;32592;-51
2022/03/14 08:25:05;;;;;;;;;;;22.10;42.80;;;;;;6145770;27;19989;-45
2022/03/14 08:28:06;;;;;;;;;;;22.00;42.20;;;;;;6152544;27;19930;-44
2022/03/14 08:31:08;;;;;;;;;;;22.20;42.80;;;;;;6143529;27;20065;-44
2022/03/14 08:34:10;;;;;;;;;;;22.00;42.50;;;;;;6124861;27;19934;-48
2022/03/14 08:37:12;;;;;;;;;;;22.10;42.40;;;;;;6132422;27;19931;-46
2022/03/14 08:40:15;;;;;;;;;;;22.30;42.40;;;;;;6126600;27;19963;-46
2022/03/14 08:43:18;;;;;;;;;;;22.40;42.40;;;;;;6131167;27;20012;-46
2022/03/14 08:46:20;;;;;;;;;;;22.00;42.40;;;;;;6110152;27;20043;-46
2022/03/14 08:49:22;;;;;;;;;;;22.40;42.40;;;;;;6130860;27;19931;-46
2022/03/14 08:52:23;;;;;;;;;;;22.30;42.50;;;;;;6134658;27;20027;-46
2022/03/14 08:55:25;;;;;;;;;;;22.10;42.20;;;;;;6115904;27;38006;-49
2022/03/14 08:58:29;;;;;;;;;;;22.40;42.30;;;;;;6125544;27;19970;-47
2022/03/14 09:01:32;;;;;;;;;;;22.50;42.40;;;;;;6086208;27;19935;-43
2022/03/14 09:04:34;;;;;;;;;;;22.60;42.20;;;;;;6116352;27;19975;-46
2022/03/14 09:07:37;;;;;;;;;;;22.40;42.20;;;;;;6137794;27;19931;-44
2022/03/14 09:10:41;;;;;;;;;;;22.30;41.90;;;;;;6138967;27;20061;-44
2022/03/14 09:13:43;;;;;;;;;;;22.30;41.90;;;;;;6117924;27;19937;-44
2022/03/14 09:16:46;;;;;;;;;;;22.70;41.80;;;;;;6162390;27;19938;-46
2022/03/14 09:19:48;;;;;;;;;;;22.70;41.90;;;;;;6146128;27;19938;-47
2022/03/14 09:22:50;;;;;;;;;;;22.80;41.80;;;;;;6124703;27;19931;-44
2022/03/14 09:25:52;;;;;;;;;;;22.90;42.40;;;;;;6123152;27;19931;-46
2022/03/14 09:28:53;;;;;;;;;;;22.70;41.60;;;;;;6125820;27;20831;-46
2022/03/14 09:31:56;;;;;;;;;;;23.10;41.80;;;;;;6133887;27;19930;-46
2022/03/14 09:34:59;;;;;;;;;;;22.80;41.70;;;;;;6121237;27;19931;-44
2022/03/14 09:38:06;;;;;;;;;;;23.20;41.80;;;;;;6122533;27;20671;-45
2022/03/14 09:41:08;;;;;;;;;;;22.90;41.40;;;;;;6103267;27;22504;-44
2022/03/14 09:44:11;;;;;;;;;;;23.10;41.40;;;;;;6163071;27;21274;-45
2022/03/14 09:47:13;;;;;;;;;;;22.90;41.30;;;;;;6101120;27;19935;-46
2022/03/14 09:50:15;;;;;;;;;;;23.20;41.60;;;;;;6116695;27;20984;-48
2022/03/14 09:53:18;;;;;;;;;;;22.90;41.30;;;;;;6147380;27;19931;-48
2022/03/14 09:56:20;;;;;;;;;;;22.70;41.10;;;;;;6114890;27;25945;-47
2022/03/14 09:59:22;;;;;;;;;;;22.90;40.90;;;;;;6140984;27;19935;-46
2022/03/14 10:02:24;;;;;;;;;;;23.30;41.30;;;;;;6104636;27;19967;-44
2022/03/14 10:05:25;;;;;;;;;;;22.60;40.70;;;;;;6138793;27;20414;-47
2022/03/14 10:08:27;;;;;;;;;;;23.30;41.30;;;;;;6148313;27;19932;-46
2022/03/14 10:11:29;;;;;;;;;;;22.70;40.60;;;;;;6156191;27;20112;-46
2022/03/14 10:14:31;;;;;;;;;;;22.90;41.00;;;;;;6123150;27;19938;-50
2022/03/14 10:17:35;;;;;;;;;;;23.10;40.90;;;;;;6150400;27;19931;-46
2022/03/14 10:20:37;;;;;;;;;;;23.10;41.20;;;;;;6155656;27;19932;-49
2022/03/14 10:23:42;;;;;;;;;;;22.90;40.70;;;;;;6127970;27;19989;-50
2022/03/14 10:26:44;;;;;;;;;;;23.10;41.50;;;;;;6134149;27;19932;-47
2022/03/14 10:29:46;;;;;;;;;;;23.00;40.90;;;;;;6156372;27;19974;-46
2022/03/14 10:32:48;;;;;;;;;;;23.10;40.90;;;;;;6142173;27;20037;-48
2022/03/14 10:35:52;;;;;;;;;;;23.00;40.70;;;;;;6144781;27;19931;-48
2022/03/14 10:38:54;;;;;;;;;;;23.40;41.00;;;;;;6165402;27;20925;-48
2022/03/14 10:42:04;;;;;;;;;;;23.50;41.00;;;;;;6170623;27;19938;-47
2022/03/14 10:45:25;;;;;;;;;;;23.50;40.90;;;;;;6141532;27;19938;-46
2022/03/14 10:48:34;;;;;;;;;;;24.00;41.00;;;;;;6141903;27;19938;-47
2022/03/14 10:51:50;;;;;;;;;;;23.20;40.60;;;;;;6138309;27;24497;-46
2022/03/14 10:54:52;;;;;;;;;;;22.80;40.90;;;;;;6127678;27;34265;-47
2022/03/14 10:57:55;;;;;;;;;;;23.40;40.80;;;;;;6096900;27;19931;-47
2022/03/14 11:00:58;;;;;;;;;;;23.50;40.80;;;;;;6150355;27;19931;-49
2022/03/14 11:03:59;;;;;;;;;;;23.70;40.60;;;;;;6111528;27;22594;-49
2022/03/14 11:07:03;;;;;;;;;;;24.00;41.00;;;;;;6110022;27;19969;-46
2022/03/14 11:10:07;;;;;;;;;;;23.30;40.60;;;;;;6134833;27;19971;-46
2022/03/14 11:13:12;;;;;;;;;;;23.40;40.50;;;;;;6153035;27;19976;-48
2022/03/14 11:16:17;;;;;;;;;;;23.40;40.60;;;;;;6152653;27;22207;-47
2022/03/14 11:19:19;;;;;;;;;;;23.40;40.50;;;;;;6143622;27;19935;-49
2022/03/14 11:22:21;;;;;;;;;;;23.70;40.30;;;;;;6186748;27;20391;-46
2022/03/14 11:25:23;;;;;;;;;;;23.60;40.50;;;;;;6167846;27;19931;-47
2022/03/14 11:28:25;;;;;;;;;;;23.20;40.50;;;;;;6176334;27;20047;-49
2022/03/14 11:31:26;;;;;;;;;;;23.60;40.50;;;;;;6191599;27;19945;-46
2022/03/14 11:34:29;;;;;;;;;;;23.70;40.60;;;;;;6160859;27;19931;-47
2022/03/14 11:37:31;;;;;;;;;;;23.20;40.30;;;;;;6160986;27;19992;-46
2022/03/14 11:40:33;;;;;;;;;;;23.70;40.50;;;;;;6129582;27;19931;-51
2022/03/14 11:43:38;;;;;;;;;;;23.70;40.60;;;;;;6164229;27;20135;-50
2022/03/14 11:47:01;;;;;;;;;;;24.00;40.60;;;;;;6192701;27;19938;-46
2022/03/14 11:50:03;;;;;;;;;;;23.40;40.50;;;;;;6217401;27;19987;-46
2022/03/14 11:53:05;;;;;;;;;;;23.50;40.50;;;;;;6223867;27;19937;-48
2022/03/14 11:56:07;;;;;;;;;;;23.40;40.60;;;;;;6222539;27;30082;-47
2022/03/14 11:59:09;;;;;;;;;;;23.40;40.50;;;;;;6221150;27;19938;-47
2022/03/14 12:02:11;;;;;;;;;;;23.40;40.60;;;;;;6215163;27;19978;-48
2022/03/14 12:05:13;;;;;;;;;;;23.50;40.60;;;;;;6219604;27;19931;-48
2022/03/14 12:08:26;;;;;;;;;;;23.70;40.60;;;;;;6216086;27;19931;-50
2022/03/14 12:11:31;;;;;;;;;;;23.60;40.50;;;;;;6226265;27;19935;-48
2022/03/14 12:14:41;;;;;;;;;;;23.70;40.60;;;;;;6217193;27;19941;-47
2022/03/14 12:17:45;;;;;;;;;;;23.50;40.40;;;;;;6215032;27;21189;-49
2022/03/14 12:20:46;;;;;;;;;;;23.30;40.40;;;;;;6222884;27;20073;-47
2022/03/14 12:23:51;;;;;;;;;;;24.10;40.90;;;;;;6227672;27;19938;-51
2022/03/14 12:26:58;;;;;;;;;;;23.10;40.30;;;;;;6206855;27;21185;-51
2022/03/14 12:30:04;;;;;;;;;;;23.50;40.40;;;;;;6210504;27;19935;-48
2022/03/14 12:33:07;;;;;;;;;;;23.60;40.60;;;;;;6185526;27;21191;-50
2022/03/14 12:36:24;;;;;;;;;;;23.60;40.70;;;;;;6191880;27;19982;-51
2022/03/14 12:39:26;;;;;;;;;;;23.40;40.30;;;;;;6198214;27;19939;-51
2022/03/14 12:42:28;;;;;;;;;;;23.60;40.60;;;;;;6186303;27;19937;-50
2022/03/14 12:45:31;;;;;;;;;;;23.40;40.30;;;;;;6173435;27;19939;-52
2022/03/14 12:48:34;;;;;;;;;;;23.50;40.40;;;;;;6165803;27;19985;-50
2022/03/14 12:51:38;;;;;;;;;;;23.70;40.20;;;;;;6157452;27;21260;-47
2022/03/14 12:54:40;;;;;;;;;;;23.40;40.60;;;;;;6146032;27;21519;-49
2022/03/14 12:57:42;;;;;;;;;;;23.30;40.60;;;;;;6175085;27;19931;-50
2022/03/14 13:00:43;;;;;;;;;;;23.80;40.60;;;;;;6137138;27;19932;-48
2022/03/14 13:03:57;;;;;;;;;;;23.40;40.40;;;;;;6103119;27;21515;-51
2022/03/14 13:06:59;;;;;;;;;;;23.50;40.30;;;;;;6128985;27;22404;-46
2022/03/14 13:10:16;;;;;;;;;;;23.70;40.40;;;;;;6154241;27;20151;-50
2022/03/14 13:13:23;;;;;;;;;;;23.70;40.30;;;;;;6140919;27;19942;-49
2022/03/14 13:16:28;;;;;;;;;;;23.60;40.30;;;;;;6095023;27;20505;-49
2022/03/14 13:19:32;;;;;;;;;;;23.40;40.20;;;;;;6132527;27;20054;-50
2022/03/14 13:22:35;;;;;;;;;;;23.80;40.40;;;;;;6136415;27;20356;-48
2022/03/14 13:25:38;;;;;;;;;;;23.90;40.30;;;;;;6131086;27;19931;-51
2022/03/14 13:28:40;;;;;;;;;;;23.40;40.30;;;;;;6160466;27;20087;-48
2022/03/14 13:31:43;;;;;;;;;;;23.80;40.30;;;;;;6159550;27;19965;-47
2022/03/14 13:34:45;;;;;;;;;;;23.50;40.20;;;;;;6151027;27;19931;-47
2022/03/14 13:37:47;;;;;;;;;;;23.80;40.30;;;;;;6155489;27;19931;-50
2022/03/14 13:40:48;;;;;;;;;;;23.50;40.20;;;;;;6157499;27;19931;-46
2022/03/14 13:43:51;;;;;;;;;;;23.70;39.90;;;;;;6137802;27;19943;-49
2022/03/14 13:46:54;;;;;;;;;;;23.80;40.20;;;;;;6072094;27;20058;-46
2022/03/14 13:50:03;;;;;;;;;;;23.70;40.10;;;;;;6102775;27;20897;-50
2022/03/14 13:53:04;;;;;;;;;;;23.50;39.80;;;;;;6095894;27;20046;-52
2022/03/14 13:56:09;;;;;;;;;;;23.90;40.20;;;;;;6134158;27;23653;-48
2022/03/14 13:59:24;;;;;;;;;;;23.60;39.90;;;;;;6132998;27;19976;-49
2022/03/14 14:02:32;;;;;;;;;;;23.70;39.80;;;;;;6121722;27;25359;-49
2022/03/14 14:05:36;;;;;;;;;;;23.40;39.90;;;;;;6078102;27;21907;-51
2022/03/14 14:08:38;;;;;;;;;;;23.90;40.00;;;;;;6120121;27;19932;-52
2022/03/14 14:11:54;;;;;;;;;;;23.90;40.00;;;;;;6118948;27;20015;-50
2022/03/14 14:14:57;;;;;;;;;;;23.80;40.00;;;;;;6117283;27;20057;-48
2022/03/14 14:17:59;;;;;;;;;;;23.60;39.90;;;;;;6146273;27;20006;-50
2022/03/14 14:21:00;;;;;;;;;;;23.40;39.60;;;;;;6129225;27;20784;-48
2022/03/14 14:24:04;;;;;;;;;;;23.70;39.70;;;;;;6131473;27;21448;-48
2022/03/14 14:27:15;;;;;;;;;;;23.90;39.70;;;;;;6134804;27;19978;-47
2022/03/14 14:30:25;;;;;;;;;;;24.30;40.00;;;;;;6118260;27;19931;-46
2022/03/14 14:33:30;;;;;;;;;;;24.00;39.70;;;;;;6128280;27;19970;-50
2022/03/14 14:36:33;;;;;;;;;;;23.60;39.50;;;;;;6094521;27;20888;-48
2022/03/14 14:39:36;;;;;;;;;;;24.00;39.80;;;;;;6133577;27;19978;-46
2022/03/14 14:42:37;;;;;;;;;;;24.00;39.70;;;;;;6128911;27;20109;-48
2022/03/14 14:45:38;;;;;;;;;;;23.90;39.90;;;;;;6141256;27;19931;-48
2022/03/14 14:48:41;;;;;;;;;;;23.80;39.70;;;;;;6138189;27;20055;-48
2022/03/14 14:51:44;;;;;;;;;;;24.00;39.60;;;;;;6143524;27;19931;-48
2022/03/14 14:54:45;;;;;;;;;;;23.70;39.60;;;;;;6143469;27;39176;-50
2022/03/14 14:58:05;;;;;;;;;;;24.00;39.80;;;;;;6130050;27;19931;-48
2022/03/14 15:01:13;;;;;;;;;;;23.70;39.50;;;;;;6103314;27;19931;-50
2022/03/14 15:04:17;;;;;;;;;;;23.70;39.70;;;;;;6083821;27;20000;-48
2022/03/14 15:07:18;;;;;;;;;;;24.10;39.40;;;;;;6134951;27;20015;-49
2022/03/14 15:10:20;;;;;;;;;;;23.80;39.40;;;;;;6116153;27;19935;-49
2022/03/14 15:13:27;;;;;;;;;;;24.10;39.60;;;;;;6114917;27;20077;-46
2022/03/14 15:16:28;;;;;;;;;;;24.20;39.70;;;;;;6120291;27;19979;-47
2022/03/14 15:19:30;;;;;;;;;;;24.00;39.40;;;;;;6113620;27;20859;-46
2022/03/14 15:22:32;;;;;;;;;;;24.20;39.60;;;;;;6080560;27;19931;-49
2022/03/14 15:25:33;;;;;;;;;;;23.80;39.50;;;;;;6117786;27;20053;-48
2022/03/14 15:28:34;;;;;;;;;;;24.00;39.80;;;;;;6124521;27;20488;-48
2022/03/14 15:31:36;;;;;;;;;;;24.10;37.50;;;;;;6086680;27;20036;-47
2022/03/14 15:34:38;;;;;;;;;;;24.00;37.50;;;;;;6130020;27;19976;-50
2022/03/14 15:37:40;;;;;;;;;;;24.10;36.90;;;;;;6135606;27;21261;-50
2022/03/14 15:40:42;;;;;;;;;;;24.00;37.30;;;;;;6138117;27;19930;-49
2022/03/14 15:43:43;;;;;;;;;;;24.20;37.50;;;;;;6098272;27;19971;-46
2022/03/14 15:46:47;;;;;;;;;;;24.20;37.40;;;;;;6101897;27;19931;-45
2022/03/14 15:49:49;;;;;;;;;;;24.10;37.40;;;;;;6105043;27;22647;-47
2022/03/14 15:52:50;;;;;;;;;;;24.20;37.30;;;;;;6123197;27;20681;-46
2022/03/14 15:55:52;;;;;;;;;;;24.20;37.20;;;;;;6114993;27;19931;-49
2022/03/14 15:58:54;;;;;;;;;;;24.00;37.30;;;;;;6116228;27;19939;-47
2022/03/14 16:01:55;;;;;;;;;;;23.80;37.10;;;;;;6096203;27;19931;-47
2022/03/14 16:04:58;;;;;;;;;;;24.30;37.30;;;;;;6075800;27;20011;-47
2022/03/14 16:07:59;;;;;;;;;;;24.20;37.20;;;;;;6127471;27;19938;-47
2022/03/14 16:11:00;;;;;;;;;;;24.00;37.20;;;;;;6137429;27;19977;-47
2022/03/14 16:14:05;;;;;;;;;;;24.30;37.20;;;;;;6142272;27;19931;-46
2022/03/14 16:17:06;;;;;;;;;;;24.20;37.20;;;;;;6135307;27;19965;-47
2022/03/14 16:20:10;;;;;;;;;;;23.90;37.00;;;;;;6121916;27;19935;-49
2022/03/14 16:23:11;;;;;;;;;;;24.30;37.20;;;;;;6150303;27;19932;-51
2022/03/14 16:26:14;;;;;;;;;;;24.20;37.10;;;;;;6147450;27;19931;-47
2022/03/14 16:29:16;;;;;;;;;;;23.80;37.10;;;;;;6159929;27;20052;-46
2022/03/14 16:32:17;;;;;;;;;;;24.20;37.20;;;;;;6176355;27;20138;-45
2022/03/14 16:35:19;;;;;;;;;;;24.30;37.20;;;;;;6151582;27;19931;-47
2022/03/14 16:38:21;;;;;;;;;;;23.90;36.90;;;;;;6181840;27;20492;-47
2022/03/14 16:41:22;;;;;;;;;;;24.20;37.10;;;;;;6171606;27;19932;-48
2022/03/14 16:44:23;;;;;;;;;;;24.10;37.10;;;;;;6133117;27;21131;-47
2022/03/14 16:47:25;;;;;;;;;;;24.00;37.00;;;;;;6173166;27;20342;-49
2022/03/14 16:50:27;;;;;;;;;;;24.10;37.10;;;;;;6199430;27;19931;-48
2022/03/14 16:53:29;;;;;;;;;;;24.20;37.10;;;;;;6202568;27;21829;-47
2022/03/14 16:56:35;;;;;;;;;;;24.20;37.10;;;;;;6181145;27;38994;-51
2022/03/14 16:59:36;;;;;;;;;;;24.20;37.10;;;;;;6196140;27;20065;-48
2022/03/14 17:02:42;;;;;;;;;;;23.80;36.90;;;;;;6201502;27;19931;-48
2022/03/14 17:05:44;;;;;;;;;;;23.60;36.70;;;;;;6214788;27;21010;-50
2022/03/14 17:08:47;;;;;;;;;;;23.90;36.90;;;;;;6217467;27;20038;-48
2022/03/14 17:11:49;;;;;;;;;;;23.80;36.90;;;;;;6227982;27;19931;-49
2022/03/14 17:14:50;;;;;;;;;;;23.70;36.80;;;;;;6239976;27;19937;-46
2022/03/14 17:17:53;;;;;;;;;;;24.10;37.00;;;;;;6255704;27;19931;-50
2022/03/14 17:20:56;;;;;;;;;;;23.70;36.80;;;;;;6247931;27;20403;-48
2022/03/14 17:23:57;;;;;;;;;;;23.90;36.90;;;;;;6267035;27;19935;-50
2022/03/14 17:27:01;;;;;;;;;;;23.70;36.80;;;;;;6262114;27;19973;-48
2022/03/14 17:30:03;;;;;;;;;;;24.00;36.90;;;;;;6264125;27;19932;-51
2022/03/14 17:33:06;;;;;;;;;;;24.00;37.00;;;;;;6257790;27;19938;-52
2022/03/14 17:36:09;;;;;;;;;;;23.70;36.80;;;;;;6279507;27;19938;-47
2022/03/14 17:39:10;;;;;;;;;;;23.70;36.80;;;;;;6291239;27;19934;-49
2022/03/14 17:42:12;;;;;;;;;;;24.20;37.20;;;;;;6284065;27;19926;-49